createdAt,value
2022-09-12T00:01:15.371Z,10.26
2022-09-12T00:03:42.025Z,10.22
2022-09-12T00:06:29.091Z,10.21
2022-09-12T00:08:58.543Z,10.24
2022-09-12T00:11:26.006Z,10.32
2022-09-12T00:13:56.818Z,10.32
2022-09-12T00:16:25.585Z,10.22
2022-09-12T00:18:53.258Z,10.13
2022-09-12T00:21:21.881Z,10.04
2022-09-12T00:23:48.998Z,10.04
2022-09-12T00:26:15.586Z,9.99
2022-09-12T00:28:42.518Z,9.99
2022-09-12T00:31:12.689Z,9.97
2022-09-12T00:33:39.783Z,9.94
2022-09-12T00:36:10.634Z,9.87
2022-09-12T00:38:38.752Z,9.88
2022-09-12T00:41:06.401Z,9.87
2022-09-12T00:43:42.008Z,9.84
2022-09-12T00:46:21.793Z,9.82
2022-09-12T00:48:56.485Z,9.83
2022-09-12T00:51:23.461Z,9.83
2022-09-12T00:53:53.618Z,9.83
2022-09-12T00:56:21.765Z,9.81
2022-09-12T00:59:02.328Z,9.78
2022-09-12T01:01:32.361Z,9.75
2022-09-12T01:04:00.238Z,9.71
2022-09-12T01:06:35.918Z,9.70
2022-09-12T01:09:04.843Z,9.67
2022-09-12T01:11:37.027Z,9.63
2022-09-12T01:14:06.056Z,9.64
2022-09-12T01:16:36.099Z,9.65
2022-09-12T01:19:21.965Z,9.63
2022-09-12T01:22:13.516Z,9.59
2022-09-12T01:24:51.740Z,9.62
2022-09-12T01:27:33.738Z,9.57
2022-09-12T01:30:37.400Z,9.56
2022-09-12T01:33:18.898Z,9.56
2022-09-12T01:35:54.452Z,9.46
2022-09-12T01:38:47.327Z,9.45
2022-09-12T01:41:40.198Z,9.47
2022-09-12T01:44:12.939Z,9.44
2022-09-12T01:47:09.355Z,9.40
2022-09-12T01:49:48.411Z,9.38
2022-09-12T01:52:41.317Z,9.39
2022-09-12T01:55:21.629Z,9.33
2022-09-12T01:58:09.785Z,9.33
2022-09-12T02:00:44.562Z,9.26
2022-09-12T02:03:17.098Z,9.23
2022-09-12T02:05:56.229Z,9.19
2022-09-12T02:08:28.645Z,9.19
2022-09-12T02:11:00.267Z,9.18
2022-09-12T02:13:39.254Z,9.19
2022-09-12T02:16:10.783Z,9.28
2022-09-12T02:18:45.264Z,9.25
2022-09-12T02:21:12.867Z,9.18
2022-09-12T02:23:46.192Z,9.08
2022-09-12T02:26:21.150Z,9.07
2022-09-12T02:28:48.980Z,9.04
2022-09-12T02:31:37.551Z,8.97
2022-09-12T02:34:20.241Z,8.93
2022-09-12T02:37:03.715Z,8.92
2022-09-12T02:39:30.274Z,8.97
2022-09-12T02:41:59.221Z,8.97
2022-09-12T02:44:28.138Z,8.93
2022-09-12T02:47:01.162Z,8.96
2022-09-12T02:49:27.781Z,8.95
2022-09-12T02:51:55.023Z,8.93
2022-09-12T02:54:21.788Z,8.96
2022-09-12T03:00:45.380Z,8.83
2022-09-12T03:04:05.873Z,8.86
2022-09-12T03:06:42.225Z,8.84
2022-09-12T03:09:27.242Z,8.83
2022-09-12T03:12:18.730Z,8.79
2022-09-12T03:15:01.663Z,8.72
2022-09-12T03:18:01.843Z,8.70
2022-09-12T03:21:01.848Z,8.66
2022-09-12T03:23:38.431Z,8.67
2022-09-12T03:26:19.849Z,8.72
2022-09-12T03:28:48.037Z,8.76
2022-09-12T03:31:17.197Z,8.70
2022-09-12T03:33:44.061Z,8.68
2022-09-12T03:36:22.697Z,8.66
2022-09-12T03:38:49.313Z,8.63
2022-09-12T03:41:15.837Z,8.57
2022-09-12T03:43:43.178Z,8.55
2022-09-12T03:46:09.716Z,8.59
2022-09-12T03:48:36.298Z,8.59
2022-09-12T03:51:08.440Z,8.60
2022-09-12T03:53:35.202Z,8.54
2022-09-12T03:56:07.621Z,8.55
2022-09-12T03:58:35.797Z,8.54
2022-09-12T04:01:12.625Z,8.54
2022-09-12T04:03:43.362Z,8.59
2022-09-12T04:06:11.442Z,8.59
2022-09-12T04:08:38.562Z,8.59
2022-09-12T04:11:15.435Z,8.57
2022-09-12T04:13:43.859Z,8.57
2022-09-12T04:16:11.756Z,8.51
2022-09-12T04:18:38.320Z,8.50
2022-09-12T04:21:11.584Z,8.46
2022-09-12T04:23:38.438Z,8.46
2022-09-12T04:26:07.556Z,8.42
2022-09-12T04:28:35.750Z,8.42
2022-09-12T04:31:15.634Z,8.40
2022-09-12T04:33:42.339Z,8.44
2022-09-12T04:36:11.906Z,8.36
2022-09-12T04:38:39.033Z,8.32
2022-09-12T04:41:18.485Z,8.34
2022-09-12T04:43:49.056Z,8.39
2022-09-12T04:46:19.755Z,8.41
2022-09-12T04:48:47.090Z,8.39
2022-09-12T04:51:44.222Z,8.39
2022-09-12T04:54:19.433Z,8.30
2022-09-12T04:56:48.934Z,8.26
2022-09-12T04:59:17.933Z,8.27
2022-09-12T05:01:44.546Z,8.28
2022-09-12T05:04:13.028Z,8.30
2022-09-12T05:06:40.963Z,8.22
2022-09-12T05:09:11.256Z,8.19
2022-09-12T05:12:03.837Z,8.21
2022-09-12T05:14:26.758Z,8.22
2022-09-12T05:16:53.367Z,8.24
2022-09-12T05:19:19.926Z,8.23
2022-09-12T05:21:46.483Z,8.22
2022-09-12T05:24:13.074Z,8.22
2022-09-12T05:26:39.617Z,8.25
2022-09-12T05:29:07.134Z,8.22
2022-09-12T05:31:34.674Z,8.22
2022-09-12T05:34:01.281Z,8.28
2022-09-12T05:36:30.395Z,8.35
2022-09-12T05:38:57.491Z,8.38
2022-09-12T05:41:32.932Z,8.39
2022-09-12T05:44:02.439Z,8.33
2022-09-12T05:46:31.553Z,8.32
2022-09-12T05:49:03.907Z,8.37
2022-09-12T05:51:34.791Z,8.40
2022-09-12T05:54:05.870Z,8.37
2022-09-12T05:56:34.569Z,8.40
2022-09-12T05:59:08.259Z,8.46
2022-09-12T06:01:35.870Z,8.48
2022-09-12T06:04:04.958Z,8.56
2022-09-12T06:06:32.948Z,8.69
2022-09-12T06:09:01.833Z,8.71
2022-09-12T06:11:30.689Z,8.72
2022-09-12T06:13:58.594Z,8.72
2022-09-12T06:16:28.214Z,8.73
2022-09-12T06:18:57.232Z,8.77
2022-09-12T06:21:26.497Z,8.87
2022-09-12T06:23:55.849Z,8.96
2022-09-12T06:26:25.471Z,9.02
2022-09-12T06:28:53.951Z,9.02
2022-09-12T06:31:26.402Z,9.08
2022-09-12T06:33:54.201Z,9.12
2022-09-12T06:36:22.737Z,9.22
2022-09-12T06:38:57.806Z,9.31
2022-09-12T06:41:25.464Z,9.34
2022-09-12T06:43:52.221Z,9.39
2022-09-12T06:46:19.096Z,9.48
2022-09-12T06:48:45.870Z,9.57
2022-09-12T06:51:15.233Z,9.71
2022-09-12T06:53:42.639Z,9.77
2022-09-12T06:56:21.697Z,9.88
2022-09-12T06:58:50.466Z,9.98
2022-09-12T07:01:28.284Z,10.07
2022-09-12T07:03:57.253Z,10.18
2022-09-12T07:06:29.770Z,10.26
2022-09-12T07:08:58.342Z,10.38
2022-09-12T07:11:27.028Z,10.47
2022-09-12T07:13:56.339Z,10.53
2022-09-12T07:16:23.017Z,10.61
2022-09-12T07:18:54.447Z,10.76
2022-09-12T07:21:21.048Z,10.86
2022-09-12T07:23:48.225Z,10.95
2022-09-12T07:26:16.209Z,11.05
2022-09-12T07:28:43.021Z,11.21
2022-09-12T07:31:16.064Z,11.36
2022-09-12T07:33:43.661Z,11.52
2022-09-12T07:36:16.218Z,11.69
2022-09-12T07:38:43.991Z,11.85
2022-09-12T07:41:21.566Z,11.98
2022-09-12T07:43:48.424Z,12.12
2022-09-12T07:46:15.070Z,12.25
2022-09-12T07:48:41.704Z,12.36
2022-09-12T07:51:11.357Z,12.47
2022-09-12T07:53:40.852Z,12.60
2022-09-12T07:56:10.382Z,12.74
2022-09-12T07:58:38.526Z,12.88
2022-09-12T08:01:13.621Z,13.01
2022-09-12T08:03:42.101Z,13.13
2022-09-12T08:06:15.388Z,13.22
2022-09-12T08:08:43.035Z,13.32
2022-09-12T08:11:12.217Z,13.41
2022-09-12T08:13:40.478Z,13.49
2022-09-12T08:16:12.055Z,13.62
2022-09-12T08:18:39.205Z,13.68
2022-09-12T08:21:12.439Z,13.80
2022-09-12T08:23:38.938Z,13.88
2022-09-12T08:26:06.451Z,13.99
2022-09-12T08:28:35.434Z,14.07
2022-09-12T08:31:04.035Z,14.15
2022-09-12T08:33:34.471Z,14.24
2022-09-12T08:36:05.600Z,14.29
2022-09-12T08:38:33.235Z,14.36
2022-09-12T08:41:17.878Z,14.44
2022-09-12T08:44:06.971Z,14.53
2022-09-12T08:46:51.789Z,14.63
2022-09-12T08:49:31.063Z,14.71
2022-09-12T08:52:00.601Z,14.76
2022-09-12T08:54:29.728Z,14.81
2022-09-12T08:57:02.857Z,14.91
2022-09-12T08:59:41.132Z,15.00
2022-09-12T09:02:42.120Z,15.09
2022-09-12T09:05:30.015Z,15.20
2022-09-12T09:08:08.867Z,15.25
2022-09-12T09:10:46.389Z,15.34
2022-09-12T09:13:56.150Z,15.40
2022-09-12T09:16:30.912Z,15.55
2022-09-12T09:19:01.323Z,15.63
2022-09-12T09:21:50.580Z,15.69
2022-09-12T09:24:22.035Z,15.78
2022-09-12T09:26:55.069Z,15.84
2022-09-12T09:29:26.926Z,15.89
2022-09-12T09:31:57.838Z,15.94
2022-09-12T09:34:34.425Z,16.05
2022-09-12T09:37:34.206Z,16.15
2022-09-12T09:40:15.648Z,16.24
2022-09-12T09:42:53.942Z,16.31
2022-09-12T09:45:24.319Z,16.38
2022-09-12T09:48:04.955Z,16.46
2022-09-12T09:50:31.783Z,16.53
2022-09-12T09:53:00.084Z,16.61
2022-09-12T09:55:34.434Z,16.68
2022-09-12T09:58:00.903Z,16.78
2022-09-12T10:00:30.671Z,16.90
2022-09-12T10:03:02.967Z,17.05
2022-09-12T10:05:31.354Z,17.14
2022-09-12T10:07:58.444Z,17.27
2022-09-12T10:10:25.530Z,17.39
2022-09-12T10:13:07.386Z,17.58
2022-09-12T10:15:34.773Z,17.73
2022-09-12T10:18:03.120Z,17.88
2022-09-12T10:20:31.447Z,18.09
2022-09-12T10:23:07.322Z,18.27
2022-09-12T10:25:33.751Z,18.41
2022-09-12T10:28:01.088Z,18.54
2022-09-12T10:30:28.587Z,18.64
2022-09-12T10:33:07.511Z,18.76
2022-09-12T10:35:46.030Z,18.86
2022-09-12T10:38:21.343Z,19.03
2022-09-12T10:40:57.836Z,19.24
2022-09-12T10:43:29.707Z,19.38
2022-09-12T10:46:19.288Z,19.52
2022-09-12T10:48:47.399Z,19.71
2022-09-12T10:51:28.806Z,19.78
2022-09-12T10:53:59.304Z,19.90
2022-09-12T10:56:32.624Z,20.05
2022-09-12T10:59:20.602Z,20.09
2022-09-12T11:02:15.101Z,20.13
2022-09-12T11:04:44.238Z,20.18
2022-09-12T11:07:29.568Z,20.35
2022-09-12T11:10:21.183Z,20.48
2022-09-12T11:13:00.214Z,20.57
2022-09-12T11:15:44.637Z,20.66
2022-09-12T11:18:23.439Z,20.76
2022-09-12T11:21:02.921Z,20.80
2022-09-12T11:24:01.554Z,20.92
2022-09-12T11:27:10.790Z,21.06
2022-09-12T11:29:49.006Z,21.22
2022-09-12T11:32:40.818Z,21.26
2022-09-12T11:35:28.781Z,21.33
2022-09-12T11:38:22.123Z,21.32
2022-09-12T11:40:55.909Z,21.44
2022-09-12T11:43:34.236Z,21.66
2022-09-12T11:46:18.420Z,21.75
2022-09-12T11:48:54.690Z,21.77
2022-09-12T11:51:28.268Z,21.71
2022-09-12T11:54:02.683Z,21.87
2022-09-12T11:56:29.157Z,22.00
2022-09-12T11:59:04.503Z,22.09
2022-09-12T12:01:45.074Z,22.05
2022-09-12T12:04:17.852Z,22.11
2022-09-12T12:06:53.903Z,22.30
2022-09-12T12:09:20.793Z,22.48
2022-09-12T12:11:57.638Z,22.56
2022-09-12T12:14:31.096Z,22.61
2022-09-12T12:16:57.931Z,22.54
2022-09-12T12:19:36.141Z,22.69
2022-09-12T12:22:17.043Z,22.84
2022-09-12T12:25:08.743Z,22.91
2022-09-12T12:27:44.691Z,22.99
2022-09-12T12:30:29.385Z,23.14
2022-09-12T12:33:06.969Z,23.25
2022-09-12T12:36:04.698Z,23.32
2022-09-12T12:38:32.401Z,23.43
2022-09-12T12:41:16.980Z,23.53
2022-09-12T12:43:52.216Z,23.65
2022-09-12T12:46:21.303Z,23.77
2022-09-12T12:48:50.619Z,23.87
2022-09-12T12:51:29.595Z,23.92
2022-09-12T12:53:56.159Z,24.05
2022-09-12T12:56:34.774Z,24.13
2022-09-12T12:59:17.039Z,24.28
2022-09-12T13:01:58.779Z,24.26
2022-09-12T13:04:29.990Z,24.28
2022-09-12T13:07:08.748Z,24.34
2022-09-12T13:09:45.924Z,24.51
2022-09-12T13:12:21.630Z,24.67
2022-09-12T13:14:50.250Z,24.78
2022-09-12T13:17:39.757Z,24.84
2022-09-12T13:20:30.424Z,24.96
2022-09-12T13:22:58.120Z,25.06
2022-09-12T13:25:32.087Z,24.99
2022-09-12T13:28:01.164Z,25.15
2022-09-12T13:30:31.449Z,25.36
2022-09-12T13:33:02.672Z,25.50
2022-09-12T13:35:42.949Z,25.58
2022-09-12T13:38:43.695Z,25.64
2022-09-12T13:41:39.243Z,25.68
2022-09-12T13:44:10.690Z,25.87
2022-09-12T13:46:37.878Z,25.97
2022-09-12T13:49:30.171Z,26.09
2022-09-12T13:52:21.326Z,26.10
2022-09-12T13:54:53.094Z,26.23
2022-09-12T13:57:41.356Z,26.46
2022-09-12T14:00:19.577Z,26.56
2022-09-12T14:02:47.628Z,26.60
2022-09-12T14:05:26.239Z,26.28
2022-09-12T14:08:04.103Z,26.52
2022-09-12T14:10:50.399Z,26.72
2022-09-12T14:13:21.109Z,26.88
2022-09-12T14:15:50.259Z,26.90
2022-09-12T14:18:45.537Z,27.10
2022-09-12T14:21:23.340Z,27.22
2022-09-12T14:23:49.954Z,27.37
2022-09-12T14:26:17.793Z,27.40
2022-09-12T14:28:49.325Z,27.54
2022-09-12T14:31:30.570Z,27.67
2022-09-12T14:34:18.209Z,27.78
2022-09-12T14:36:49.221Z,27.62
2022-09-12T14:39:22.457Z,27.83
2022-09-12T14:41:49.926Z,28.01
2022-09-12T14:44:20.993Z,28.07
2022-09-12T14:46:48.644Z,28.15
2022-09-12T14:49:27.663Z,28.16
2022-09-12T14:51:57.157Z,28.34
2022-09-12T14:54:30.225Z,28.54
2022-09-12T14:56:59.458Z,28.56
2022-09-12T14:59:35.291Z,28.70
2022-09-12T15:02:14.259Z,28.89
2022-09-12T15:04:43.695Z,28.99
2022-09-12T15:07:24.326Z,29.11
2022-09-12T15:09:51.042Z,29.08
2022-09-12T15:12:17.535Z,29.04
2022-09-12T15:14:44.035Z,29.09
2022-09-12T15:17:10.530Z,29.29
2022-09-12T15:19:37.017Z,29.41
2022-09-12T15:22:03.579Z,29.39
2022-09-12T15:24:30.068Z,29.45
2022-09-12T15:26:56.794Z,29.59
2022-09-12T15:29:23.285Z,29.63
2022-09-12T15:31:51.230Z,29.73
2022-09-12T15:34:17.708Z,29.69
2022-09-12T15:36:44.189Z,29.58
2022-09-12T15:39:10.666Z,29.72
2022-09-12T15:41:38.208Z,29.67
2022-09-12T15:44:12.235Z,29.79
2022-09-12T15:46:39.383Z,29.76
2022-09-12T15:49:07.015Z,29.91
2022-09-12T15:51:33.591Z,29.91
2022-09-12T15:54:02.229Z,29.83
2022-09-12T15:56:28.689Z,29.85
2022-09-12T15:58:59.181Z,29.83
2022-09-12T16:01:27.692Z,29.74
2022-09-12T16:03:54.357Z,29.75
2022-09-12T16:06:20.940Z,29.80
2022-09-12T16:08:47.581Z,29.82
2022-09-12T16:11:21.158Z,29.81
2022-09-12T16:13:48.525Z,29.57
2022-09-12T16:16:15.127Z,28.82
2022-09-12T16:18:41.931Z,28.09
2022-09-12T16:21:14.047Z,27.46
2022-09-12T16:23:45.635Z,27.09
2022-09-12T16:26:12.614Z,26.78
2022-09-12T16:28:39.532Z,26.57
2022-09-12T16:31:08.425Z,26.44
2022-09-12T16:33:35.125Z,26.56
2022-09-12T16:36:21.981Z,26.75
2022-09-12T16:38:51.200Z,26.76
2022-09-12T16:41:19.946Z,26.49
2022-09-12T16:43:47.030Z,26.13
2022-09-12T16:46:16.397Z,25.84
2022-09-12T16:48:49.579Z,25.58
2022-09-12T16:51:24.438Z,25.30
2022-09-12T16:53:51.764Z,25.18
2022-09-12T16:56:18.819Z,25.35
2022-09-12T16:58:46.208Z,25.32
2022-09-12T17:01:18.969Z,24.98
2022-09-12T17:03:45.909Z,24.73
2022-09-12T17:06:15.250Z,24.48
2022-09-12T17:08:43.498Z,24.32
2022-09-12T17:11:15.935Z,24.05
2022-09-12T17:14:03.694Z,23.79
2022-09-12T17:16:31.194Z,23.34
2022-09-12T17:18:58.017Z,23.10
2022-09-12T17:21:24.680Z,23.06
2022-09-12T17:23:51.266Z,22.96
2022-09-12T17:26:17.803Z,22.82
2022-09-12T17:28:44.306Z,22.74
2022-09-12T17:31:12.969Z,22.64
2022-09-12T17:33:40.729Z,22.38
2022-09-12T17:36:11.063Z,22.05
2022-09-12T17:38:39.736Z,21.82
2022-09-12T17:41:17.754Z,21.78
2022-09-12T17:43:52.422Z,21.68
2022-09-12T17:46:19.662Z,21.56
2022-09-12T17:48:54.574Z,21.43
2022-09-12T17:51:24.528Z,21.35
2022-09-12T17:54:02.822Z,20.99
2022-09-12T17:56:31.575Z,20.76
2022-09-12T17:58:59.237Z,20.64
2022-09-12T18:01:45.328Z,20.43
2022-09-12T18:04:12.031Z,20.23
2022-09-12T18:06:40.061Z,20.19
2022-09-12T18:09:09.698Z,20.10
2022-09-12T18:11:36.616Z,19.95
2022-09-12T18:14:03.130Z,19.85
2022-09-12T18:16:31.346Z,19.81
2022-09-12T18:19:03.587Z,19.69
2022-09-12T18:21:30.267Z,19.52
2022-09-12T18:23:59.309Z,19.43
2022-09-12T18:26:27.391Z,19.50
2022-09-12T18:28:54.471Z,19.47
2022-09-12T18:31:24.021Z,19.34
2022-09-12T18:33:51.127Z,19.15
2022-09-12T18:36:18.920Z,19.04
2022-09-12T18:38:46.086Z,18.85
2022-09-12T18:41:15.330Z,18.81
2022-09-12T18:43:41.998Z,18.64
2022-09-12T18:46:14.231Z,18.46
2022-09-12T18:48:41.397Z,18.38
2022-09-12T18:51:10.153Z,18.30
2022-09-12T18:53:37.375Z,18.14
2022-09-12T18:56:12.308Z,18.08
2022-09-12T18:58:40.857Z,17.97
2022-09-12T19:01:15.189Z,17.93
2022-09-12T19:03:42.543Z,17.87
2022-09-12T19:06:17.562Z,17.81
2022-09-12T19:08:45.265Z,17.76
2022-09-12T19:11:12.714Z,17.63
2022-09-12T19:13:41.591Z,17.59
2022-09-12T19:16:11.100Z,17.55
2022-09-12T19:18:39.521Z,17.49
2022-09-12T19:21:07.732Z,17.37
2022-09-12T19:23:35.681Z,17.28
2022-09-12T19:26:05.329Z,17.25
2022-09-12T19:28:32.430Z,17.23
2022-09-12T19:30:59.205Z,17.14
2022-09-12T19:33:25.938Z,17.02
2022-09-12T19:35:52.472Z,16.87
2022-09-12T19:38:19.440Z,16.81
2022-09-12T19:40:56.768Z,16.82
2022-09-12T19:43:23.577Z,16.78
2022-09-12T19:45:50.055Z,16.73
2022-09-12T19:48:16.501Z,16.76
2022-09-12T19:50:42.955Z,16.57
2022-09-12T19:53:09.600Z,16.51
2022-09-12T19:55:36.646Z,16.43
2022-09-12T19:58:03.675Z,16.37
2022-09-12T20:00:30.156Z,16.35
2022-09-12T20:02:56.605Z,16.26
2022-09-12T20:05:23.085Z,16.15
2022-09-12T20:07:49.607Z,16.03
2022-09-12T20:10:16.140Z,15.98
2022-09-12T20:12:42.627Z,15.89
2022-09-12T20:15:10.145Z,15.80
2022-09-12T20:17:36.680Z,15.83
2022-09-12T20:20:03.938Z,15.72
2022-09-12T20:22:30.436Z,15.65
2022-09-12T20:24:57.134Z,15.63
2022-09-12T20:27:23.643Z,15.58
2022-09-12T20:29:51.133Z,15.48
2022-09-12T20:32:18.333Z,15.40
2022-09-12T20:34:44.851Z,15.49
2022-09-12T20:37:11.604Z,15.45
2022-09-12T20:39:38.225Z,15.38
2022-09-12T20:42:04.886Z,15.30
2022-09-12T20:44:31.382Z,15.25
2022-09-12T20:46:58.039Z,15.15
2022-09-12T20:49:24.657Z,15.08
2022-09-12T20:51:51.174Z,15.06
2022-09-12T20:54:17.670Z,15.05
2022-09-12T20:56:44.179Z,15.05
2022-09-12T20:59:12.117Z,15.00
2022-09-12T21:01:38.756Z,15.01
2022-09-12T21:04:05.630Z,14.88
2022-09-12T21:06:32.112Z,14.91
2022-09-12T21:08:59.749Z,14.93
2022-09-12T21:11:27.475Z,14.90
2022-09-12T21:13:54.862Z,14.97
2022-09-12T21:16:22.985Z,14.81
2022-09-12T21:18:57.877Z,14.80
2022-09-12T21:21:24.916Z,14.71
2022-09-12T21:23:51.474Z,14.71
2022-09-12T21:26:18.296Z,14.69
2022-09-12T21:28:44.743Z,14.62
2022-09-12T21:31:11.368Z,14.59
2022-09-12T21:33:37.951Z,14.86
2022-09-12T21:36:05.613Z,14.78
2022-09-12T21:38:33.021Z,14.67
2022-09-12T21:41:10.694Z,14.76
2022-09-12T21:43:38.198Z,14.75
2022-09-12T21:46:05.994Z,14.57
2022-09-12T21:48:32.963Z,14.24
2022-09-12T21:50:59.829Z,14.17
2022-09-12T21:53:26.494Z,14.03
2022-09-12T21:55:53.059Z,13.95
2022-09-12T21:58:19.646Z,13.93
2022-09-12T22:00:46.202Z,13.89
2022-09-12T22:03:12.786Z,13.88
2022-09-12T22:05:43.130Z,13.96
2022-09-12T22:08:10.981Z,13.90
2022-09-12T22:10:38.514Z,13.87
2022-09-12T22:13:05.411Z,13.85
2022-09-12T22:15:40.891Z,13.78
2022-09-12T22:18:07.787Z,13.74
2022-09-12T22:20:34.265Z,13.76
2022-09-12T22:23:23.810Z,13.63
2022-09-12T22:25:54.239Z,13.58
2022-09-12T22:28:21.290Z,13.57
2022-09-12T22:30:48.579Z,13.54
2022-09-12T22:33:15.345Z,13.44
2022-09-12T22:35:42.429Z,13.54
2022-09-12T22:38:09.172Z,13.62
2022-09-12T22:40:35.639Z,13.68
2022-09-12T22:43:02.366Z,13.63
2022-09-12T22:45:28.832Z,13.66
2022-09-12T22:47:59.174Z,13.65
2022-09-12T22:50:27.582Z,13.58
2022-09-12T22:52:54.101Z,13.41
2022-09-12T22:55:20.604Z,13.37
2022-09-12T22:57:47.187Z,13.29
2022-09-12T23:00:14.840Z,13.23
2022-09-12T23:02:41.452Z,13.13
2022-09-12T23:05:08.238Z,13.10
2022-09-12T23:07:34.699Z,13.09
2022-09-12T23:10:01.222Z,13.08
2022-09-12T23:12:27.786Z,13.10
2022-09-12T23:14:54.273Z,13.13
2022-09-12T23:17:20.775Z,13.10
2022-09-12T23:19:47.219Z,13.08
2022-09-12T23:22:13.944Z,13.01
2022-09-12T23:24:40.433Z,12.97
2022-09-12T23:27:07.090Z,12.88
2022-09-12T23:29:35.272Z,12.84
2022-09-12T23:32:03.541Z,12.78
2022-09-12T23:34:30.914Z,12.76
2022-09-12T23:36:57.477Z,12.76
2022-09-12T23:39:23.934Z,12.77
2022-09-12T23:41:50.507Z,12.63
2022-09-12T23:44:16.981Z,12.55
2022-09-12T23:46:43.484Z,12.55
2022-09-12T23:49:10.064Z,12.56
2022-09-12T23:51:36.605Z,12.52
2022-09-12T23:54:03.122Z,12.44
2022-09-12T23:56:29.676Z,12.45
2022-09-12T23:58:56.179Z,12.45
